createdAt,value
2022-10-02T00:01:20.428Z,2.60
2022-10-02T00:03:49.541Z,2.47
2022-10-02T00:06:22.003Z,3.30
2022-10-02T00:08:53.091Z,2.43
2022-10-02T00:11:26.899Z,2.90
2022-10-02T00:13:58.471Z,3.37
2022-10-02T00:16:33.367Z,2.73
2022-10-02T00:19:02.437Z,2.30
2022-10-02T00:21:41.846Z,2.70
2022-10-02T00:24:15.463Z,2.47
2022-10-02T00:26:53.432Z,3.20
2022-10-02T00:29:33.250Z,2.57
2022-10-02T00:32:18.119Z,3.10
2022-10-02T00:34:59.928Z,3.57
2022-10-02T00:37:40.009Z,2.80
2022-10-02T00:40:33.354Z,2.80
2022-10-02T00:43:17.847Z,3.13
2022-10-02T00:46:25.855Z,2.83
2022-10-02T00:49:08.517Z,2.20
2022-10-02T00:51:55.442Z,2.83
2022-10-02T00:54:46.054Z,3.70
2022-10-02T00:57:26.578Z,3.43
2022-10-02T01:00:03.685Z,2.80
2022-10-02T01:02:48.732Z,2.30
2022-10-02T01:05:17.606Z,3.80
2022-10-02T01:07:50.783Z,2.20
2022-10-02T01:10:20.997Z,3.13
2022-10-02T01:12:49.428Z,2.33
2022-10-02T01:15:20.955Z,2.70
2022-10-02T01:17:52.671Z,2.43
2022-10-02T01:20:24.350Z,2.10
2022-10-02T01:22:59.800Z,2.60
2022-10-02T01:25:30.005Z,3.10
2022-10-02T01:27:58.154Z,2.97
2022-10-02T01:30:26.834Z,2.97
2022-10-02T01:32:57.669Z,4.10
2022-10-02T01:35:31.742Z,2.60
2022-10-02T01:38:01.114Z,2.13
2022-10-02T01:40:32.379Z,2.60
2022-10-02T01:43:03.927Z,2.03
2022-10-02T01:45:43.476Z,2.57
2022-10-02T01:48:17.083Z,2.93
2022-10-02T01:50:54.535Z,2.47
2022-10-02T01:53:29.817Z,2.80
2022-10-02T01:56:08.770Z,2.40
2022-10-02T01:58:49.159Z,2.53
2022-10-02T02:01:26.391Z,2.50
2022-10-02T02:04:00.099Z,2.67
2022-10-02T02:06:34.064Z,2.70
2022-10-02T02:09:09.116Z,3.10
2022-10-02T02:11:45.590Z,3.20
2022-10-02T02:14:17.546Z,1.90
2022-10-02T02:16:49.423Z,3.43
2022-10-02T02:19:21.542Z,2.87
2022-10-02T02:21:54.898Z,2.93
2022-10-02T02:24:27.097Z,2.57
2022-10-02T02:27:00.266Z,2.80
2022-10-02T02:29:32.266Z,3.10
2022-10-02T02:32:02.106Z,3.13
2022-10-02T02:34:34.485Z,3.17
2022-10-02T02:37:06.743Z,2.47
2022-10-02T02:39:42.879Z,2.77
2022-10-02T02:42:17.787Z,2.20
2022-10-02T02:44:49.890Z,2.90
2022-10-02T02:47:22.390Z,2.80
2022-10-02T02:50:00.200Z,2.70
2022-10-02T02:52:32.349Z,2.87
2022-10-02T02:55:05.718Z,2.33
2022-10-02T02:57:40.989Z,2.20
2022-10-02T03:00:09.896Z,3.13
2022-10-02T03:02:38.031Z,2.67
2022-10-02T03:05:12.555Z,2.87
2022-10-02T03:07:41.078Z,2.47
2022-10-02T03:10:16.980Z,3.20
2022-10-02T03:12:59.391Z,2.40
2022-10-02T03:15:30.643Z,2.67
2022-10-02T03:18:22.672Z,3.00
2022-10-02T03:20:58.846Z,2.63
2022-10-02T03:23:32.319Z,3.10
2022-10-02T03:26:05.698Z,2.97
2022-10-02T03:28:54.882Z,2.93
2022-10-02T03:31:25.351Z,2.70
2022-10-02T03:33:54.898Z,2.70
2022-10-02T03:36:24.552Z,2.97
2022-10-02T03:39:12.923Z,2.13
2022-10-02T03:41:43.519Z,2.57
2022-10-02T03:44:12.821Z,2.80
2022-10-02T03:46:40.937Z,2.97
2022-10-02T03:49:08.985Z,2.80
2022-10-02T03:51:37.038Z,2.60
2022-10-02T03:54:14.015Z,3.07
2022-10-02T03:56:47.791Z,3.60
2022-10-02T03:59:21.635Z,3.10
2022-10-02T04:01:52.804Z,2.97
2022-10-02T04:04:26.270Z,2.73
2022-10-02T04:07:00.838Z,2.33
2022-10-02T04:09:34.855Z,2.50
2022-10-02T04:12:08.903Z,2.60
2022-10-02T04:14:45.103Z,3.47
2022-10-02T04:17:16.782Z,2.40
2022-10-02T04:19:49.939Z,2.17
2022-10-02T04:22:34.674Z,2.20
2022-10-02T04:25:07.751Z,1.93
2022-10-02T04:27:40.998Z,2.60
2022-10-02T04:30:13.474Z,2.53
2022-10-02T04:32:41.609Z,2.27
2022-10-02T04:35:16.214Z,2.57
2022-10-02T04:37:58.974Z,2.53
2022-10-02T04:40:53.307Z,2.23
2022-10-02T04:43:31.605Z,2.10
2022-10-02T04:46:13.981Z,1.77
2022-10-02T04:49:07.978Z,2.47
2022-10-02T04:51:53.662Z,1.90
2022-10-02T04:54:41.227Z,1.90
2022-10-02T04:57:33.840Z,1.90
2022-10-02T05:00:10.004Z,2.43
2022-10-02T05:02:52.786Z,2.20
2022-10-02T05:05:30.870Z,2.33
2022-10-02T05:08:22.922Z,1.70
2022-10-02T05:11:20.370Z,1.70
2022-10-02T05:14:03.117Z,1.63
2022-10-02T05:16:50.982Z,1.37
2022-10-02T05:19:37.681Z,1.43
2022-10-02T05:22:23.758Z,1.50
2022-10-02T05:25:06.932Z,1.67
2022-10-02T05:27:49.668Z,1.20
2022-10-02T05:30:19.663Z,1.27
2022-10-02T05:33:13.925Z,1.10
2022-10-02T05:36:16.214Z,1.43
2022-10-02T05:39:03.284Z,1.23
2022-10-02T05:41:41.677Z,1.10
2022-10-02T05:44:16.367Z,1.40
2022-10-02T05:46:47.534Z,1.07
2022-10-02T05:49:18.811Z,1.20
2022-10-02T05:51:55.759Z,1.20
2022-10-02T05:54:38.135Z,1.20
2022-10-02T05:57:13.405Z,1.30
2022-10-02T05:59:46.114Z,1.10
2022-10-02T06:02:25.064Z,0.90
2022-10-02T06:05:02.370Z,1.20
2022-10-02T06:07:33.005Z,1.17
2022-10-02T06:10:08.007Z,0.90
2022-10-02T06:12:40.854Z,1.50
2022-10-02T06:15:17.378Z,1.30
2022-10-02T06:17:49.066Z,1.00
2022-10-02T06:20:23.496Z,1.23
2022-10-02T06:23:02.266Z,1.10
2022-10-02T06:25:34.787Z,1.20
2022-10-02T06:28:09.483Z,1.23
2022-10-02T06:30:42.505Z,1.20
2022-10-02T06:33:16.063Z,1.00
2022-10-02T06:36:22.210Z,1.00
2022-10-02T06:39:11.837Z,1.27
2022-10-02T06:41:48.097Z,1.43
2022-10-02T06:44:23.078Z,0.97
2022-10-02T06:47:04.077Z,0.93
2022-10-02T06:49:43.621Z,1.30
2022-10-02T06:52:23.181Z,0.90
2022-10-02T06:55:08.888Z,0.67
2022-10-02T06:57:50.060Z,0.80
2022-10-02T07:00:21.257Z,1.10
2022-10-02T07:03:19.968Z,1.00
2022-10-02T07:06:24.015Z,1.00
2022-10-02T07:09:30.851Z,0.80
2022-10-02T07:12:11.890Z,1.00
2022-10-02T07:14:57.353Z,0.80
2022-10-02T07:17:41.675Z,0.90
2022-10-02T07:20:27.966Z,0.80
2022-10-02T07:23:09.934Z,1.03
2022-10-02T07:25:59.147Z,1.20
2022-10-02T07:28:39.431Z,0.97
2022-10-02T07:31:18.818Z,0.80
2022-10-02T07:34:10.895Z,0.90
2022-10-02T07:36:49.986Z,0.60
2022-10-02T07:39:31.381Z,0.90
2022-10-02T07:42:32.398Z,1.00
2022-10-02T07:45:28.693Z,1.20
2022-10-02T07:48:21.468Z,0.90
2022-10-02T07:51:04.209Z,1.10
2022-10-02T07:53:40.053Z,0.70
2022-10-02T07:56:10.811Z,0.80
2022-10-02T07:58:42.751Z,0.80
2022-10-02T08:01:14.995Z,0.67
2022-10-02T08:03:49.102Z,0.80
2022-10-02T08:06:18.491Z,0.70
2022-10-02T08:08:53.807Z,0.87
2022-10-02T08:11:28.309Z,0.70
2022-10-02T08:14:00.887Z,0.90
2022-10-02T08:16:36.286Z,0.77
2022-10-02T08:19:09.496Z,0.60
2022-10-02T08:21:44.700Z,0.73
2022-10-02T08:24:16.783Z,0.70
2022-10-02T08:26:49.703Z,0.70
2022-10-02T08:29:22.461Z,0.70
2022-10-02T08:31:53.192Z,1.00
2022-10-02T08:34:22.786Z,0.63
2022-10-02T08:37:25.261Z,0.73
2022-10-02T08:40:38.347Z,0.80
2022-10-02T08:43:32.236Z,0.70
2022-10-02T08:46:29.780Z,0.83
2022-10-02T08:49:33.649Z,0.60
2022-10-02T08:52:27.092Z,0.63
2022-10-02T08:55:21.474Z,1.00
2022-10-02T08:58:13.341Z,0.70
2022-10-02T09:00:55.284Z,0.60
2022-10-02T09:03:54.281Z,0.60
2022-10-02T09:07:18.215Z,0.80
2022-10-02T09:10:38.021Z,0.67
2022-10-02T09:13:33.795Z,0.67
2022-10-02T09:16:10.467Z,0.63
2022-10-02T09:18:54.382Z,0.70
2022-10-02T09:21:51.493Z,0.53
2022-10-02T09:24:59.163Z,0.67
2022-10-02T09:28:04.841Z,0.60
2022-10-02T09:31:07.826Z,0.40
2022-10-02T09:34:06.360Z,0.70
2022-10-02T09:37:06.667Z,0.60
2022-10-02T09:40:18.003Z,0.80
2022-10-02T09:43:12.371Z,0.60
2022-10-02T09:46:11.701Z,0.70
2022-10-02T09:49:37.107Z,0.70
2022-10-02T09:52:30.546Z,0.70
2022-10-02T09:55:36.735Z,0.60
2022-10-02T09:58:45.391Z,0.60
2022-10-02T10:01:32.975Z,0.60
2022-10-02T10:04:42.012Z,0.70
2022-10-02T10:07:47.112Z,0.60
2022-10-02T10:10:31.003Z,0.63
2022-10-02T10:13:34.127Z,0.60
2022-10-02T10:16:51.061Z,0.60
2022-10-02T10:19:45.300Z,0.63
2022-10-02T10:22:40.853Z,0.60
2022-10-02T10:25:35.023Z,0.60
2022-10-02T10:28:33.747Z,0.60
2022-10-02T10:31:33.364Z,0.50
2022-10-02T10:34:23.471Z,0.63
2022-10-02T10:37:19.827Z,0.50
2022-10-02T10:40:15.606Z,0.60
2022-10-02T10:43:36.469Z,0.70
2022-10-02T10:46:20.899Z,0.60
2022-10-02T10:49:13.898Z,0.60
2022-10-02T10:51:51.912Z,0.60
2022-10-02T10:54:55.515Z,0.70
2022-10-02T10:57:45.871Z,0.70
2022-10-02T11:00:21.737Z,0.63
2022-10-02T11:03:30.027Z,0.63
2022-10-02T11:06:30.011Z,0.90
2022-10-02T11:09:23.206Z,0.60
2022-10-02T11:12:13.423Z,0.70
2022-10-02T11:14:58.077Z,0.80
2022-10-02T11:18:12.712Z,0.80
2022-10-02T11:21:18.986Z,0.80
2022-10-02T11:24:23.894Z,1.00
2022-10-02T11:27:21.813Z,1.50
2022-10-02T11:30:02.862Z,1.00
2022-10-02T11:33:12.531Z,0.60
2022-10-02T11:36:08.696Z,0.70
2022-10-02T11:39:05.568Z,0.90
2022-10-02T11:41:47.688Z,0.73
2022-10-02T11:44:29.692Z,0.80
2022-10-02T11:47:15.436Z,0.60
2022-10-02T11:50:05.739Z,0.60
2022-10-02T11:53:02.687Z,0.60
2022-10-02T11:55:49.331Z,0.70
2022-10-02T11:58:37.168Z,0.63
2022-10-02T12:01:18.064Z,1.10
2022-10-02T12:04:22.263Z,0.67
2022-10-02T12:07:04.958Z,0.60
2022-10-02T12:09:42.987Z,0.70
2022-10-02T12:12:28.013Z,0.60
2022-10-02T12:15:02.356Z,0.60
2022-10-02T12:17:53.352Z,0.60
2022-10-02T12:20:46.893Z,0.60
2022-10-02T12:23:54.703Z,0.50
2022-10-02T12:27:05.560Z,0.60
2022-10-02T12:30:10.299Z,0.73
2022-10-02T12:32:52.994Z,0.83
2022-10-02T12:35:40.159Z,0.80
2022-10-02T12:38:25.362Z,0.90
2022-10-02T12:41:03.375Z,1.20
2022-10-02T12:44:17.169Z,2.63
2022-10-02T12:47:06.854Z,1.60
2022-10-02T12:49:47.987Z,1.60
2022-10-02T12:52:40.631Z,0.80
2022-10-02T12:55:47.606Z,0.60
2022-10-02T12:58:24.125Z,0.60
2022-10-02T13:01:43.084Z,0.63
2022-10-02T13:04:46.211Z,0.57
2022-10-02T13:07:46.400Z,0.60
2022-10-02T13:10:20.069Z,0.70
2022-10-02T13:13:04.922Z,0.67
2022-10-02T13:15:46.723Z,0.83
2022-10-02T13:18:34.756Z,0.70
2022-10-02T13:21:13.509Z,0.60
2022-10-02T13:23:52.880Z,0.50
2022-10-02T13:26:32.075Z,0.87
2022-10-02T13:29:15.155Z,1.37
2022-10-02T13:32:07.236Z,1.20
2022-10-02T13:35:01.179Z,0.60
2022-10-02T13:37:43.907Z,0.70
2022-10-02T13:40:30.167Z,0.70
2022-10-02T13:43:28.767Z,0.80
2022-10-02T13:46:07.393Z,0.80
2022-10-02T13:48:46.754Z,0.70
2022-10-02T13:51:23.009Z,0.80
2022-10-02T13:54:16.797Z,0.60
2022-10-02T13:56:51.953Z,0.67
2022-10-02T13:59:32.836Z,0.70
2022-10-02T14:02:16.633Z,0.60
2022-10-02T14:04:52.980Z,0.80
2022-10-02T14:07:35.470Z,0.80
2022-10-02T14:10:13.135Z,2.10
2022-10-02T14:12:55.549Z,1.47
2022-10-02T14:15:35.325Z,1.20
2022-10-02T14:18:20.648Z,1.00
2022-10-02T14:20:54.400Z,0.70
2022-10-02T14:23:40.107Z,0.90
2022-10-02T14:26:18.071Z,0.60
2022-10-02T14:29:09.203Z,1.00
2022-10-02T14:32:31.842Z,0.90
2022-10-02T14:35:33.743Z,1.10
2022-10-02T14:38:24.505Z,1.40
2022-10-02T14:40:54.551Z,1.20
2022-10-02T14:43:55.859Z,1.00
2022-10-02T14:46:40.345Z,0.80
2022-10-02T14:49:30.944Z,1.17
2022-10-02T14:52:35.399Z,0.83
2022-10-02T14:55:27.710Z,0.93
2022-10-02T14:58:22.596Z,0.80
2022-10-02T15:01:09.246Z,1.03
2022-10-02T15:04:04.719Z,0.90
2022-10-02T15:06:47.680Z,1.30
2022-10-02T15:09:20.715Z,0.80
2022-10-02T15:12:07.722Z,0.80
2022-10-02T15:14:43.402Z,0.93
2022-10-02T15:17:41.852Z,1.03
2022-10-02T15:20:20.899Z,1.10
2022-10-02T15:22:57.702Z,0.90
2022-10-02T15:25:52.093Z,1.10
2022-10-02T15:28:36.773Z,1.10
2022-10-02T15:31:13.248Z,1.00
2022-10-02T15:33:47.796Z,1.30
2022-10-02T15:36:25.756Z,1.10
2022-10-02T15:39:23.300Z,1.37
2022-10-02T15:42:04.716Z,1.50
2022-10-02T15:45:01.650Z,2.27
2022-10-02T15:47:40.759Z,3.73
2022-10-02T15:50:25.256Z,3.20
2022-10-02T15:53:09.897Z,1.90
2022-10-02T15:55:42.403Z,1.60
2022-10-02T15:58:31.607Z,1.80
2022-10-02T16:01:31.199Z,2.87
2022-10-02T16:04:07.831Z,2.70
2022-10-02T16:06:53.676Z,2.03
2022-10-02T16:09:41.297Z,1.50
2022-10-02T16:12:26.944Z,1.40
2022-10-02T16:15:04.075Z,1.37
2022-10-02T16:17:53.493Z,1.47
2022-10-02T16:20:37.573Z,1.47
2022-10-02T16:23:29.114Z,1.30
2022-10-02T16:26:17.598Z,2.20
2022-10-02T16:28:53.195Z,1.30
2022-10-02T16:31:50.376Z,1.13
2022-10-02T16:34:29.816Z,1.10
2022-10-02T16:37:02.014Z,1.40
2022-10-02T16:39:54.254Z,2.53
2022-10-02T16:42:29.838Z,1.17
2022-10-02T16:45:37.098Z,1.73
2022-10-02T16:48:12.059Z,1.07
2022-10-02T16:51:04.628Z,1.47
2022-10-02T16:53:37.699Z,1.10
2022-10-02T16:56:16.031Z,1.00
2022-10-02T16:58:51.858Z,1.07
2022-10-02T17:01:29.751Z,1.10
2022-10-02T17:04:24.810Z,0.87
2022-10-02T17:06:59.063Z,1.13
2022-10-02T17:09:35.790Z,1.17
2022-10-02T17:12:14.120Z,0.90
2022-10-02T17:14:47.248Z,1.10
2022-10-02T17:17:23.737Z,1.00
2022-10-02T17:19:54.565Z,1.20
2022-10-02T17:22:33.117Z,1.30
2022-10-02T17:25:15.851Z,0.93
2022-10-02T17:27:53.331Z,1.20
2022-10-02T17:30:24.341Z,1.70
2022-10-02T17:33:08.316Z,1.60
2022-10-02T17:35:46.112Z,1.10
2022-10-02T17:38:40.490Z,1.20
2022-10-02T17:41:21.356Z,1.17
2022-10-02T17:44:03.490Z,1.40
2022-10-02T17:46:46.685Z,1.50
2022-10-02T17:49:28.891Z,1.50
2022-10-02T17:52:23.671Z,2.23
2022-10-02T17:55:22.749Z,2.50
2022-10-02T17:58:03.385Z,2.33
2022-10-02T18:00:35.502Z,2.23
2022-10-02T18:03:36.706Z,2.50
2022-10-02T18:06:14.476Z,3.03
2022-10-02T18:09:04.505Z,3.70
2022-10-02T18:11:49.738Z,3.57
2022-10-02T18:14:32.068Z,3.77
2022-10-02T18:17:16.163Z,3.80
2022-10-02T18:19:55.283Z,1.90
2022-10-02T18:22:36.363Z,2.50
2022-10-02T18:25:23.711Z,2.00
2022-10-02T18:28:14.739Z,1.77
2022-10-02T18:30:50.008Z,2.10
2022-10-02T18:33:50.052Z,2.10
2022-10-02T18:36:30.459Z,2.40
2022-10-02T18:39:01.296Z,2.87
2022-10-02T18:41:50.171Z,2.40
2022-10-02T18:44:45.078Z,1.83
2022-10-02T18:47:28.865Z,2.90
2022-10-02T18:50:08.979Z,3.20
2022-10-02T18:53:21.123Z,2.67
2022-10-02T18:56:06.379Z,2.37
2022-10-02T18:59:05.966Z,2.13
2022-10-02T19:01:51.749Z,2.20
2022-10-02T19:04:49.896Z,2.17
2022-10-02T19:07:22.142Z,3.07
2022-10-02T19:09:53.711Z,2.70
2022-10-02T19:12:24.545Z,1.97
2022-10-02T19:14:55.041Z,2.33
2022-10-02T19:17:25.919Z,2.30
2022-10-02T19:19:54.329Z,2.47
2022-10-02T19:22:27.367Z,2.40
2022-10-02T19:24:59.755Z,2.13
2022-10-02T19:27:31.114Z,3.03
2022-10-02T19:30:01.152Z,2.33
2022-10-02T19:32:31.691Z,2.20
2022-10-02T19:35:05.249Z,2.50
2022-10-02T19:37:41.390Z,2.30
2022-10-02T19:40:16.774Z,2.03
2022-10-02T19:42:48.896Z,2.30
2022-10-02T19:45:26.379Z,2.23
2022-10-02T19:47:58.056Z,1.97
2022-10-02T19:50:35.622Z,2.23
2022-10-02T19:53:07.767Z,2.23
2022-10-02T19:55:39.867Z,2.03
2022-10-02T19:58:16.617Z,2.07
2022-10-02T20:00:44.791Z,2.70
2022-10-02T20:03:18.619Z,4.20
2022-10-02T20:05:51.288Z,4.33
2022-10-02T20:08:23.958Z,4.70
2022-10-02T20:11:00.327Z,4.40
2022-10-02T20:13:37.039Z,4.90
2022-10-02T20:16:28.198Z,5.70
2022-10-02T20:18:56.823Z,4.60
2022-10-02T20:21:38.652Z,4.13
2022-10-02T20:24:15.044Z,3.40
2022-10-02T20:26:45.819Z,3.70
2022-10-02T20:29:20.229Z,3.60
2022-10-02T20:31:51.304Z,3.67
2022-10-02T20:34:26.482Z,5.63
2022-10-02T20:36:59.778Z,6.50
2022-10-02T20:39:32.529Z,5.47
2022-10-02T20:42:05.040Z,8.60
2022-10-02T20:44:36.222Z,4.60
2022-10-02T20:47:46.277Z,4.97
2022-10-02T20:50:32.688Z,7.57
2022-10-02T20:53:34.027Z,5.73
2022-10-02T20:56:11.142Z,5.03
2022-10-02T20:59:07.075Z,4.60
2022-10-02T21:01:43.009Z,7.77
2022-10-02T21:04:59.678Z,8.80
2022-10-02T21:07:41.514Z,5.40
2022-10-02T21:10:46.142Z,4.67
2022-10-02T21:13:54.413Z,4.53
2022-10-02T21:16:58.942Z,3.47
2022-10-02T21:19:55.434Z,5.97
2022-10-02T21:22:52.714Z,5.87
2022-10-02T21:25:42.589Z,7.90
2022-10-02T21:28:45.626Z,6.13
2022-10-02T21:31:32.343Z,9.20
2022-10-02T21:34:14.305Z,7.47
2022-10-02T21:36:47.435Z,3.40
2022-10-02T21:39:51.443Z,5.53
2022-10-02T21:42:53.007Z,4.57
2022-10-02T21:45:54.438Z,6.83
2022-10-02T21:49:14.824Z,7.60
2022-10-02T21:52:11.393Z,9.50
2022-10-02T21:55:09.750Z,13.17
2022-10-02T21:58:03.697Z,15.60
2022-10-02T22:00:32.146Z,15.13
2022-10-02T22:03:21.182Z,9.77
2022-10-02T22:06:18.083Z,10.90
2022-10-02T22:09:13.250Z,11.20
2022-10-02T22:11:58.330Z,9.23
2022-10-02T22:14:31.031Z,8.70
2022-10-02T22:17:08.710Z,8.20
2022-10-02T22:19:57.826Z,8.80
2022-10-02T22:22:44.896Z,9.60
2022-10-02T22:25:23.682Z,12.10
2022-10-02T22:28:12.647Z,11.93
2022-10-02T22:30:49.370Z,8.37
2022-10-02T22:33:33.695Z,10.90
2022-10-02T22:36:16.031Z,14.27
2022-10-02T22:38:49.904Z,13.63
2022-10-02T22:41:27.160Z,9.63
2022-10-02T22:43:59.834Z,14.87
2022-10-02T22:46:41.388Z,10.40
2022-10-02T22:49:20.847Z,10.20
2022-10-02T22:52:00.062Z,10.43
2022-10-02T22:54:35.790Z,11.27
2022-10-02T22:57:14.476Z,10.83
2022-10-02T22:59:50.105Z,7.50
2022-10-02T23:02:24.980Z,7.07
2022-10-02T23:05:00.047Z,12.00
2022-10-02T23:07:31.768Z,5.77
2022-10-02T23:10:05.812Z,6.77
2022-10-02T23:12:39.537Z,8.20
2022-10-02T23:15:28.134Z,5.83
2022-10-02T23:18:00.187Z,8.07
2022-10-02T23:20:34.548Z,6.03
2022-10-02T23:23:09.294Z,10.23
2022-10-02T23:25:44.990Z,9.50
2022-10-02T23:28:27.275Z,8.60
2022-10-02T23:31:06.202Z,7.10
2022-10-02T23:33:46.706Z,8.10
2022-10-02T23:36:25.119Z,7.43
2022-10-02T23:39:02.303Z,6.50
2022-10-02T23:41:40.334Z,6.80
2022-10-02T23:44:30.054Z,9.87
2022-10-02T23:47:10.971Z,7.30
2022-10-02T23:49:43.908Z,9.00
2022-10-02T23:52:36.171Z,5.40
2022-10-02T23:55:23.582Z,6.53
2022-10-02T23:58:13.782Z,8.80
